sensor_id;sensor_type;location;lat;lon;timestamp;temperature;humidity
20400;DHT22;10359;53.596;22.520;2022-11-03T00:00:09;10.50;1.00
20400;DHT22;10359;53.596;22.520;2022-11-03T00:02:59;10.60;1.00
20400;DHT22;10359;53.596;22.520;2022-11-03T00:05:48;10.60;1.00
20400;DHT22;10359;53.596;22.520;2022-11-03T00:08:57;10.70;1.00
20400;DHT22;10359;53.596;22.520;2022-11-03T00:11:48;10.70;1.00
20400;DHT22;10359;53.596;22.520;2022-11-03T00:14:39;10.70;1.00
20400;DHT22;10359;53.596;22.520;2022-11-03T00:17:29;10.70;1.00
20400;DHT22;10359;53.596;22.520;2022-11-03T00:20:18;10.80;1.00
20400;DHT22;10359;53.596;22.520;2022-11-03T00:23:07;10.80;1.00
20400;DHT22;10359;53.596;22.520;2022-11-03T00:26:05;10.80;99.90
20400;DHT22;10359;53.596;22.520;2022-11-03T00:28:57;10.70;1.00
20400;DHT22;10359;53.596;22.520;2022-11-03T00:31:49;10.70;1.00
20400;DHT22;10359;53.596;22.520;2022-11-03T00:34:38;10.60;1.00
20400;DHT22;10359;53.596;22.520;2022-11-03T00:37:27;10.60;1.00
20400;DHT22;10359;53.596;22.520;2022-11-03T00:40:17;10.50;1.00
20400;DHT22;10359;53.596;22.520;2022-11-03T00:43:06;10.40;1.00
20400;DHT22;10359;53.596;22.520;2022-11-03T00:45:56;10.30;1.00
20400;DHT22;10359;53.596;22.520;2022-11-03T00:48:48;10.20;1.00
20400;DHT22;10359;53.596;22.520;2022-11-03T00:51:37;10.20;1.00
20400;DHT22;10359;53.596;22.520;2022-11-03T00:54:27;10.10;1.00
20400;DHT22;10359;53.596;22.520;2022-11-03T00:57:16;10.00;1.00
20400;DHT22;10359;53.596;22.520;2022-11-03T01:00:07;10.00;1.00
20400;DHT22;10359;53.596;22.520;2022-11-03T01:02:56;9.90;1.00
20400;DHT22;10359;53.596;22.520;2022-11-03T01:05:47;9.80;1.00
20400;DHT22;10359;53.596;22.520;2022-11-03T01:08:54;9.80;1.00
20400;DHT22;10359;53.596;22.520;2022-11-03T01:11:51;9.70;1.00
20400;DHT22;10359;53.596;22.520;2022-11-03T01:14:43;9.60;1.00
20400;DHT22;10359;53.596;22.520;2022-11-03T01:17:32;9.60;1.00
20400;DHT22;10359;53.596;22.520;2022-11-03T01:20:22;9.60;1.00
20400;DHT22;10359;53.596;22.520;2022-11-03T01:23:12;9.60;1.00
20400;DHT22;10359;53.596;22.520;2022-11-03T01:26:03;9.50;1.00
20400;DHT22;10359;53.596;22.520;2022-11-03T01:28:53;9.50;1.00
20400;DHT22;10359;53.596;22.520;2022-11-03T01:31:42;9.50;1.00
20400;DHT22;10359;53.596;22.520;2022-11-03T01:34:32;9.50;1.00
20400;DHT22;10359;53.596;22.520;2022-11-03T01:37:23;9.50;1.00
20400;DHT22;10359;53.596;22.520;2022-11-03T01:40:14;9.40;1.00
20400;DHT22;10359;53.596;22.520;2022-11-03T01:43:16;9.40;1.00
20400;DHT22;10359;53.596;22.520;2022-11-03T01:46:10;9.30;1.00
20400;DHT22;10359;53.596;22.520;2022-11-03T01:49:06;9.20;1.00
20400;DHT22;10359;53.596;22.520;2022-11-03T01:52:00;9.20;1.00
20400;DHT22;10359;53.596;22.520;2022-11-03T01:54:55;9.10;1.00
20400;DHT22;10359;53.596;22.520;2022-11-03T01:57:52;9.20;1.00
20400;DHT22;10359;53.596;22.520;2022-11-03T02:00:44;9.10;1.00
20400;DHT22;10359;53.596;22.520;2022-11-03T02:03:46;9.10;1.00
20400;DHT22;10359;53.596;22.520;2022-11-03T02:06:38;9.00;1.00
20400;DHT22;10359;53.596;22.520;2022-11-03T02:09:28;9.00;1.00
20400;DHT22;10359;53.596;22.520;2022-11-03T02:12:20;8.90;1.00
20400;DHT22;10359;53.596;22.520;2022-11-03T02:15:13;8.80;1.00
20400;DHT22;10359;53.596;22.520;2022-11-03T02:18:03;8.80;1.00
20400;DHT22;10359;53.596;22.520;2022-11-03T02:20:58;8.70;1.00
20400;DHT22;10359;53.596;22.520;2022-11-03T02:23:55;8.70;1.00
20400;DHT22;10359;53.596;22.520;2022-11-03T02:26:50;8.60;1.00
20400;DHT22;10359;53.596;22.520;2022-11-03T02:29:42;8.60;1.00
20400;DHT22;10359;53.596;22.520;2022-11-03T02:32:35;8.50;1.00
20400;DHT22;10359;53.596;22.520;2022-11-03T02:35:31;8.50;1.00
20400;DHT22;10359;53.596;22.520;2022-11-03T02:38:23;8.40;1.00
20400;DHT22;10359;53.596;22.520;2022-11-03T02:41:15;8.30;1.00
20400;DHT22;10359;53.596;22.520;2022-11-03T02:44:12;8.30;1.00
20400;DHT22;10359;53.596;22.520;2022-11-03T02:47:04;8.20;1.00
20400;DHT22;10359;53.596;22.520;2022-11-03T02:49:55;8.10;1.00
20400;DHT22;10359;53.596;22.520;2022-11-03T02:52:45;8.00;1.00
20400;DHT22;10359;53.596;22.520;2022-11-03T02:55:37;7.90;1.00
20400;DHT22;10359;53.596;22.520;2022-11-03T02:58:31;7.80;1.00
20400;DHT22;10359;53.596;22.520;2022-11-03T03:01:27;7.80;1.00
20400;DHT22;10359;53.596;22.520;2022-11-03T03:04:25;7.70;1.00
20400;DHT22;10359;53.596;22.520;2022-11-03T03:07:18;7.70;1.00
20400;DHT22;10359;53.596;22.520;2022-11-03T03:10:12;7.70;1.00
20400;DHT22;10359;53.596;22.520;2022-11-03T03:13:05;7.60;1.00
20400;DHT22;10359;53.596;22.520;2022-11-03T03:16:05;7.50;1.00
20400;DHT22;10359;53.596;22.520;2022-11-03T03:19:01;7.60;1.00
20400;DHT22;10359;53.596;22.520;2022-11-03T03:21:53;7.50;1.00
20400;DHT22;10359;53.596;22.520;2022-11-03T03:24:48;7.40;1.00
20400;DHT22;10359;53.596;22.520;2022-11-03T03:27:42;7.30;1.00
20400;DHT22;10359;53.596;22.520;2022-11-03T03:30:33;7.30;1.00
20400;DHT22;10359;53.596;22.520;2022-11-03T03:33:24;7.30;1.00
20400;DHT22;10359;53.596;22.520;2022-11-03T03:36:23;7.20;1.00
20400;DHT22;10359;53.596;22.520;2022-11-03T03:39:14;7.20;1.00
20400;DHT22;10359;53.596;22.520;2022-11-03T03:42:06;7.20;1.00
20400;DHT22;10359;53.596;22.520;2022-11-03T03:44:57;7.10;1.00
20400;DHT22;10359;53.596;22.520;2022-11-03T03:47:47;7.10;1.00
20400;DHT22;10359;53.596;22.520;2022-11-03T03:50:45;7.00;1.00
20400;DHT22;10359;53.596;22.520;2022-11-03T03:53:37;7.00;1.00
20400;DHT22;10359;53.596;22.520;2022-11-03T03:56:29;7.00;1.00
20400;DHT22;10359;53.596;22.520;2022-11-03T03:59:20;6.90;1.00
20400;DHT22;10359;53.596;22.520;2022-11-03T04:02:10;6.90;1.00
20400;DHT22;10359;53.596;22.520;2022-11-03T04:04:59;6.80;1.00
20400;DHT22;10359;53.596;22.520;2022-11-03T04:07:49;6.80;1.00
20400;DHT22;10359;53.596;22.520;2022-11-03T04:10:39;6.70;1.00
20400;DHT22;10359;53.596;22.520;2022-11-03T04:13:49;6.70;1.00
20400;DHT22;10359;53.596;22.520;2022-11-03T04:16:55;6.70;1.00
20400;DHT22;10359;53.596;22.520;2022-11-03T04:20:02;6.70;1.00
20400;DHT22;10359;53.596;22.520;2022-11-03T04:23:09;6.60;1.00
20400;DHT22;10359;53.596;22.520;2022-11-03T04:26:00;6.50;1.00
20400;DHT22;10359;53.596;22.520;2022-11-03T04:28:50;6.50;1.00
20400;DHT22;10359;53.596;22.520;2022-11-03T04:31:41;6.50;1.00
20400;DHT22;10359;53.596;22.520;2022-11-03T04:34:30;6.50;1.00
20400;DHT22;10359;53.596;22.520;2022-11-03T04:37:21;6.40;1.00
20400;DHT22;10359;53.596;22.520;2022-11-03T04:40:14;6.40;1.00
20400;DHT22;10359;53.596;22.520;2022-11-03T04:43:09;6.40;1.00
20400;DHT22;10359;53.596;22.520;2022-11-03T04:46:01;6.40;1.00
20400;DHT22;10359;53.596;22.520;2022-11-03T04:48:52;6.30;1.00
20400;DHT22;10359;53.596;22.520;2022-11-03T04:51:41;6.30;1.00
20400;DHT22;10359;53.596;22.520;2022-11-03T04:54:31;6.30;1.00
20400;DHT22;10359;53.596;22.520;2022-11-03T04:57:20;6.30;1.00
20400;DHT22;10359;53.596;22.520;2022-11-03T05:00:15;6.20;1.00
20400;DHT22;10359;53.596;22.520;2022-11-03T05:03:14;6.20;1.00
20400;DHT22;10359;53.596;22.520;2022-11-03T05:06:10;6.20;1.00
20400;DHT22;10359;53.596;22.520;2022-11-03T05:09:06;6.10;1.00
20400;DHT22;10359;53.596;22.520;2022-11-03T05:11:58;6.10;1.00
20400;DHT22;10359;53.596;22.520;2022-11-03T05:14:48;6.10;1.00
20400;DHT22;10359;53.596;22.520;2022-11-03T05:17:46;6.00;1.00
20400;DHT22;10359;53.596;22.520;2022-11-03T05:20:38;6.00;1.00
20400;DHT22;10359;53.596;22.520;2022-11-03T05:23:36;5.90;1.00
20400;DHT22;10359;53.596;22.520;2022-11-03T05:26:30;5.90;1.00
20400;DHT22;10359;53.596;22.520;2022-11-03T05:29:23;5.90;1.00
20400;DHT22;10359;53.596;22.520;2022-11-03T05:32:17;5.90;1.00
20400;DHT22;10359;53.596;22.520;2022-11-03T05:35:17;5.90;1.00
20400;DHT22;10359;53.596;22.520;2022-11-03T05:38:11;5.90;1.00
20400;DHT22;10359;53.596;22.520;2022-11-03T05:41:10;5.80;1.00
20400;DHT22;10359;53.596;22.520;2022-11-03T05:44:12;5.80;1.00
20400;DHT22;10359;53.596;22.520;2022-11-03T05:47:11;5.80;1.00
20400;DHT22;10359;53.596;22.520;2022-11-03T05:50:15;5.80;1.00
20400;DHT22;10359;53.596;22.520;2022-11-03T05:53:25;5.80;1.00
20400;DHT22;10359;53.596;22.520;2022-11-03T05:56:18;5.90;1.00
20400;DHT22;10359;53.596;22.520;2022-11-03T05:59:11;6.00;1.00
20400;DHT22;10359;53.596;22.520;2022-11-03T06:02:02;6.30;1.00
20400;DHT22;10359;53.596;22.520;2022-11-03T06:04:53;6.50;1.00
20400;DHT22;10359;53.596;22.520;2022-11-03T06:07:44;6.60;1.00
20400;DHT22;10359;53.596;22.520;2022-11-03T06:10:38;6.80;1.00
20400;DHT22;10359;53.596;22.520;2022-11-03T06:13:31;7.00;1.00
20400;DHT22;10359;53.596;22.520;2022-11-03T06:16:35;6.90;1.00
20400;DHT22;10359;53.596;22.520;2022-11-03T06:19:27;6.80;1.00
20400;DHT22;10359;53.596;22.520;2022-11-03T06:22:19;6.70;1.00
20400;DHT22;10359;53.596;22.520;2022-11-03T06:25:15;6.70;1.00
20400;DHT22;10359;53.596;22.520;2022-11-03T06:28:15;6.70;1.00
20400;DHT22;10359;53.596;22.520;2022-11-03T06:31:16;6.70;1.00
20400;DHT22;10359;53.596;22.520;2022-11-03T06:34:23;6.80;1.00
20400;DHT22;10359;53.596;22.520;2022-11-03T06:37:25;7.20;1.00
20400;DHT22;10359;53.596;22.520;2022-11-03T06:40:35;7.50;1.00
20400;DHT22;10359;53.596;22.520;2022-11-03T06:43:26;7.80;1.00
20400;DHT22;10359;53.596;22.520;2022-11-03T06:46:21;7.90;1.00
20400;DHT22;10359;53.596;22.520;2022-11-03T06:49:25;8.00;1.00
20400;DHT22;10359;53.596;22.520;2022-11-03T06:52:28;8.10;1.00
20400;DHT22;10359;53.596;22.520;2022-11-03T06:55:24;8.20;1.00
20400;DHT22;10359;53.596;22.520;2022-11-03T06:58:22;8.40;1.00
20400;DHT22;10359;53.596;22.520;2022-11-03T07:01:15;8.50;1.00
20400;DHT22;10359;53.596;22.520;2022-11-03T07:04:15;8.70;1.00
20400;DHT22;10359;53.596;22.520;2022-11-03T07:07:07;8.70;99.90
20400;DHT22;10359;53.596;22.520;2022-11-03T07:09:56;8.70;1.00
20400;DHT22;10359;53.596;22.520;2022-11-03T07:12:46;8.70;99.90
20400;DHT22;10359;53.596;22.520;2022-11-03T07:15:37;8.80;99.90
20400;DHT22;10359;53.596;22.520;2022-11-03T07:18:29;8.90;99.90
20400;DHT22;10359;53.596;22.520;2022-11-03T07:21:29;9.00;99.90
20400;DHT22;10359;53.596;22.520;2022-11-03T07:24:23;9.10;99.90
20400;DHT22;10359;53.596;22.520;2022-11-03T07:27:19;9.20;99.90
20400;DHT22;10359;53.596;22.520;2022-11-03T07:30:18;9.20;99.90
20400;DHT22;10359;53.596;22.520;2022-11-03T07:33:17;9.20;99.90
20400;DHT22;10359;53.596;22.520;2022-11-03T07:36:12;9.50;99.90
20400;DHT22;10359;53.596;22.520;2022-11-03T07:39:04;9.60;99.90
20400;DHT22;10359;53.596;22.520;2022-11-03T07:41:54;9.50;99.90
20400;DHT22;10359;53.596;22.520;2022-11-03T07:44:44;9.60;99.90
20400;DHT22;10359;53.596;22.520;2022-11-03T07:47:33;9.80;99.90
20400;DHT22;10359;53.596;22.520;2022-11-03T07:50:24;10.00;99.90
20400;DHT22;10359;53.596;22.520;2022-11-03T07:53:17;10.00;99.90
20400;DHT22;10359;53.596;22.520;2022-11-03T07:56:18;10.10;99.90
20400;DHT22;10359;53.596;22.520;2022-11-03T07:59:14;9.90;99.90
20400;DHT22;10359;53.596;22.520;2022-11-03T08:02:18;9.70;99.90
20400;DHT22;10359;53.596;22.520;2022-11-03T08:05:13;9.80;99.90
20400;DHT22;10359;53.596;22.520;2022-11-03T08:08:04;10.10;99.90
20400;DHT22;10359;53.596;22.520;2022-11-03T08:10:53;10.10;99.90
20400;DHT22;10359;53.596;22.520;2022-11-03T08:13:43;9.80;99.90
20400;DHT22;10359;53.596;22.520;2022-11-03T08:16:32;9.60;99.90
20400;DHT22;10359;53.596;22.520;2022-11-03T08:19:21;9.60;99.90
20400;DHT22;10359;53.596;22.520;2022-11-03T08:22:10;9.60;99.90
20400;DHT22;10359;53.596;22.520;2022-11-03T08:25:01;9.60;99.90
20400;DHT22;10359;53.596;22.520;2022-11-03T08:27:51;9.70;99.90
20400;DHT22;10359;53.596;22.520;2022-11-03T08:30:40;10.00;99.90
20400;DHT22;10359;53.596;22.520;2022-11-03T08:33:29;10.40;99.90
20400;DHT22;10359;53.596;22.520;2022-11-03T08:36:19;10.60;99.90
20400;DHT22;10359;53.596;22.520;2022-11-03T08:39:09;10.80;99.90
20400;DHT22;10359;53.596;22.520;2022-11-03T08:42:00;11.00;99.90
20400;DHT22;10359;53.596;22.520;2022-11-03T08:44:49;11.30;99.90
20400;DHT22;10359;53.596;22.520;2022-11-03T08:47:38;11.30;99.90
20400;DHT22;10359;53.596;22.520;2022-11-03T08:50:28;11.40;99.90
20400;DHT22;10359;53.596;22.520;2022-11-03T08:53:17;11.50;99.90
20400;DHT22;10359;53.596;22.520;2022-11-03T08:56:07;11.60;99.90
20400;DHT22;10359;53.596;22.520;2022-11-03T08:59:01;11.70;99.90
20400;DHT22;10359;53.596;22.520;2022-11-03T09:01:50;11.70;99.90
20400;DHT22;10359;53.596;22.520;2022-11-03T09:04:40;11.70;99.90
20400;DHT22;10359;53.596;22.520;2022-11-03T09:07:29;12.00;99.90
20400;DHT22;10359;53.596;22.520;2022-11-03T09:10:38;12.10;99.90
20400;DHT22;10359;53.596;22.520;2022-11-03T09:13:29;11.90;99.90
20400;DHT22;10359;53.596;22.520;2022-11-03T09:16:20;12.20;99.90
20400;DHT22;10359;53.596;22.520;2022-11-03T09:19:09;12.10;99.90
20400;DHT22;10359;53.596;22.520;2022-11-03T09:21:58;12.10;99.90
20400;DHT22;10359;53.596;22.520;2022-11-03T09:24:48;12.00;99.90
20400;DHT22;10359;53.596;22.520;2022-11-03T09:27:37;12.20;99.90
20400;DHT22;10359;53.596;22.520;2022-11-03T09:30:26;12.00;99.90
20400;DHT22;10359;53.596;22.520;2022-11-03T09:33:17;11.90;99.90
20400;DHT22;10359;53.596;22.520;2022-11-03T09:36:07;12.20;99.90
20400;DHT22;10359;53.596;22.520;2022-11-03T09:38:57;12.50;99.90
20400;DHT22;10359;53.596;22.520;2022-11-03T09:41:46;12.70;99.90
20400;DHT22;10359;53.596;22.520;2022-11-03T09:44:45;13.00;99.90
20400;DHT22;10359;53.596;22.520;2022-11-03T09:47:39;13.30;99.90
20400;DHT22;10359;53.596;22.520;2022-11-03T09:50:31;13.40;99.90
20400;DHT22;10359;53.596;22.520;2022-11-03T09:53:20;13.30;99.90
20400;DHT22;10359;53.596;22.520;2022-11-03T09:56:10;13.30;99.90
20400;DHT22;10359;53.596;22.520;2022-11-03T09:58:59;13.40;99.90
20400;DHT22;10359;53.596;22.520;2022-11-03T10:01:50;13.30;99.90
20400;DHT22;10359;53.596;22.520;2022-11-03T10:04:40;13.40;99.90
20400;DHT22;10359;53.596;22.520;2022-11-03T10:07:31;13.40;99.90
20400;DHT22;10359;53.596;22.520;2022-11-03T10:10:20;13.40;99.90
20400;DHT22;10359;53.596;22.520;2022-11-03T10:13:16;13.40;99.90
20400;DHT22;10359;53.596;22.520;2022-11-03T10:16:13;13.40;99.90
20400;DHT22;10359;53.596;22.520;2022-11-03T10:19:03;13.40;99.90
20400;DHT22;10359;53.596;22.520;2022-11-03T10:21:53;13.80;99.90
20400;DHT22;10359;53.596;22.520;2022-11-03T10:24:43;13.90;99.90
20400;DHT22;10359;53.596;22.520;2022-11-03T10:27:35;13.90;99.90
20400;DHT22;10359;53.596;22.520;2022-11-03T10:30:25;13.60;99.90
20400;DHT22;10359;53.596;22.520;2022-11-03T10:33:29;13.70;99.90
20400;DHT22;10359;53.596;22.520;2022-11-03T10:36:24;13.60;99.90
20400;DHT22;10359;53.596;22.520;2022-11-03T10:39:24;13.70;99.90
20400;DHT22;10359;53.596;22.520;2022-11-03T10:42:21;13.80;99.90
20400;DHT22;10359;53.596;22.520;2022-11-03T10:45:14;13.80;99.90
20400;DHT22;10359;53.596;22.520;2022-11-03T10:48:05;13.90;99.90
20400;DHT22;10359;53.596;22.520;2022-11-03T10:50:55;14.20;99.90
20400;DHT22;10359;53.596;22.520;2022-11-03T10:53:45;14.20;99.90
20400;DHT22;10359;53.596;22.520;2022-11-03T10:56:34;13.90;99.90
20400;DHT22;10359;53.596;22.520;2022-11-03T10:59:28;14.00;99.90
20400;DHT22;10359;53.596;22.520;2022-11-03T11:02:19;13.60;99.90
20400;DHT22;10359;53.596;22.520;2022-11-03T11:05:13;13.90;99.90
20400;DHT22;10359;53.596;22.520;2022-11-03T11:08:03;13.80;99.90
20400;DHT22;10359;53.596;22.520;2022-11-03T11:10:53;14.10;99.90
20400;DHT22;10359;53.596;22.520;2022-11-03T11:13:43;14.20;99.90
20400;DHT22;10359;53.596;22.520;2022-11-03T11:16:50;14.40;99.90
20400;DHT22;10359;53.596;22.520;2022-11-03T11:20:18;14.40;99.90
20400;DHT22;10359;53.596;22.520;2022-11-03T11:23:47;14.30;99.90
20400;DHT22;10359;53.596;22.520;2022-11-03T11:26:39;14.50;99.90
20400;DHT22;10359;53.596;22.520;2022-11-03T11:29:37;14.30;99.90
20400;DHT22;10359;53.596;22.520;2022-11-03T11:36:18;14.50;99.90
20400;DHT22;10359;53.596;22.520;2022-11-03T11:39:10;14.30;99.90
20400;DHT22;10359;53.596;22.520;2022-11-03T11:42:20;14.40;99.90
20400;DHT22;10359;53.596;22.520;2022-11-03T11:45:09;14.40;99.90
20400;DHT22;10359;53.596;22.520;2022-11-03T11:48:13;14.60;99.90
20400;DHT22;10359;53.596;22.520;2022-11-03T11:51:08;14.70;99.90
20400;DHT22;10359;53.596;22.520;2022-11-03T11:54:03;14.50;99.90
20400;DHT22;10359;53.596;22.520;2022-11-03T11:57:17;14.50;99.90
20400;DHT22;10359;53.596;22.520;2022-11-03T12:00:17;14.30;99.90
20400;DHT22;10359;53.596;22.520;2022-11-03T12:03:07;14.20;99.90
20400;DHT22;10359;53.596;22.520;2022-11-03T12:05:57;14.20;99.90
20400;DHT22;10359;53.596;22.520;2022-11-03T12:08:46;14.00;99.90
20400;DHT22;10359;53.596;22.520;2022-11-03T12:11:44;13.80;99.90
20400;DHT22;10359;53.596;22.520;2022-11-03T12:14:38;13.60;99.90
20400;DHT22;10359;53.596;22.520;2022-11-03T12:17:30;13.40;99.90
20400;DHT22;10359;53.596;22.520;2022-11-03T12:20:42;13.40;99.90
20400;DHT22;10359;53.596;22.520;2022-11-03T12:23:39;13.10;99.90
20400;DHT22;10359;53.596;22.520;2022-11-03T12:26:43;12.90;99.90
20400;DHT22;10359;53.596;22.520;2022-11-03T12:29:32;12.70;99.90
20400;DHT22;10359;53.596;22.520;2022-11-03T12:32:22;12.40;99.90
20400;DHT22;10359;53.596;22.520;2022-11-03T12:35:20;12.30;99.90
20400;DHT22;10359;53.596;22.520;2022-11-03T12:38:10;12.20;99.90
20400;DHT22;10359;53.596;22.520;2022-11-03T12:40:59;12.20;99.90
20400;DHT22;10359;53.596;22.520;2022-11-03T12:44:09;12.00;99.90
20400;DHT22;10359;53.596;22.520;2022-11-03T12:46:58;11.90;99.90
20400;DHT22;10359;53.596;22.520;2022-11-03T12:49:48;11.80;99.90
20400;DHT22;10359;53.596;22.520;2022-11-03T12:52:37;11.70;99.90
20400;DHT22;10359;53.596;22.520;2022-11-03T12:55:27;11.60;99.90
20400;DHT22;10359;53.596;22.520;2022-11-03T12:58:16;11.40;99.90
20400;DHT22;10359;53.596;22.520;2022-11-03T13:01:08;11.30;99.90
20400;DHT22;10359;53.596;22.520;2022-11-03T13:03:57;11.20;99.90
20400;DHT22;10359;53.596;22.520;2022-11-03T13:06:48;11.10;99.90
20400;DHT22;10359;53.596;22.520;2022-11-03T13:09:37;11.00;99.90
20400;DHT22;10359;53.596;22.520;2022-11-03T13:12:27;10.90;99.90
20400;DHT22;10359;53.596;22.520;2022-11-03T13:15:19;10.90;99.90
20400;DHT22;10359;53.596;22.520;2022-11-03T13:18:10;10.80;99.90
20400;DHT22;10359;53.596;22.520;2022-11-03T13:21:00;10.70;99.90
20400;DHT22;10359;53.596;22.520;2022-11-03T13:23:50;10.60;99.90
20400;DHT22;10359;53.596;22.520;2022-11-03T13:26:41;10.50;99.90
20400;DHT22;10359;53.596;22.520;2022-11-03T13:29:30;10.50;99.90
20400;DHT22;10359;53.596;22.520;2022-11-03T13:32:22;10.50;99.90
20400;DHT22;10359;53.596;22.520;2022-11-03T13:35:13;10.40;99.90
20400;DHT22;10359;53.596;22.520;2022-11-03T13:38:03;10.30;99.90
20400;DHT22;10359;53.596;22.520;2022-11-03T13:40:53;10.20;99.90
20400;DHT22;10359;53.596;22.520;2022-11-03T13:43:54;10.20;99.90
20400;DHT22;10359;53.596;22.520;2022-11-03T13:46:44;10.10;99.90
20400;DHT22;10359;53.596;22.520;2022-11-03T13:49:33;10.00;99.90
20400;DHT22;10359;53.596;22.520;2022-11-03T13:52:44;9.90;99.90
20400;DHT22;10359;53.596;22.520;2022-11-03T13:55:33;9.80;99.90
20400;DHT22;10359;53.596;22.520;2022-11-03T13:58:30;9.70;99.90
20400;DHT22;10359;53.596;22.520;2022-11-03T14:01:40;9.60;99.90
20400;DHT22;10359;53.596;22.520;2022-11-03T14:04:30;9.50;99.90
20400;DHT22;10359;53.596;22.520;2022-11-03T14:07:27;9.30;99.90
20400;DHT22;10359;53.596;22.520;2022-11-03T14:10:17;9.20;99.90
20400;DHT22;10359;53.596;22.520;2022-11-03T14:13:07;9.10;99.90
20400;DHT22;10359;53.596;22.520;2022-11-03T14:15:56;9.10;99.90
20400;DHT22;10359;53.596;22.520;2022-11-03T14:18:46;9.00;99.90
20400;DHT22;10359;53.596;22.520;2022-11-03T14:21:35;8.90;99.90
20400;DHT22;10359;53.596;22.520;2022-11-03T14:24:28;8.80;99.90
20400;DHT22;10359;53.596;22.520;2022-11-03T14:27:19;8.70;99.90
20400;DHT22;10359;53.596;22.520;2022-11-03T14:30:10;8.60;99.90
20400;DHT22;10359;53.596;22.520;2022-11-03T14:33:00;8.50;99.90
20400;DHT22;10359;53.596;22.520;2022-11-03T14:35:49;8.40;99.90
20400;DHT22;10359;53.596;22.520;2022-11-03T14:38:38;8.30;99.90
20400;DHT22;10359;53.596;22.520;2022-11-03T14:41:33;8.20;99.90
20400;DHT22;10359;53.596;22.520;2022-11-03T14:44:43;8.10;99.90
20400;DHT22;10359;53.596;22.520;2022-11-03T14:47:32;8.00;99.90
20400;DHT22;10359;53.596;22.520;2022-11-03T14:50:22;7.90;99.90
20400;DHT22;10359;53.596;22.520;2022-11-03T14:53:11;7.90;99.90
20400;DHT22;10359;53.596;22.520;2022-11-03T14:56:01;7.80;99.90
20400;DHT22;10359;53.596;22.520;2022-11-03T14:58:50;7.70;1.00
20400;DHT22;10359;53.596;22.520;2022-11-03T15:01:41;7.60;1.00
20400;DHT22;10359;53.596;22.520;2022-11-03T15:04:31;7.50;1.00
20400;DHT22;10359;53.596;22.520;2022-11-03T15:07:20;7.40;1.00
20400;DHT22;10359;53.596;22.520;2022-11-03T15:10:09;7.30;1.00
20400;DHT22;10359;53.596;22.520;2022-11-03T15:12:59;7.20;1.00
20400;DHT22;10359;53.596;22.520;2022-11-03T15:15:48;7.20;1.00
20400;DHT22;10359;53.596;22.520;2022-11-03T15:18:39;7.10;1.00
20400;DHT22;10359;53.596;22.520;2022-11-03T15:21:31;7.00;1.00
20400;DHT22;10359;53.596;22.520;2022-11-03T15:24:20;7.00;1.00
20400;DHT22;10359;53.596;22.520;2022-11-03T15:27:29;6.90;1.00
20400;DHT22;10359;53.596;22.520;2022-11-03T15:30:19;6.90;1.00
20400;DHT22;10359;53.596;22.520;2022-11-03T15:33:09;6.80;1.00
20400;DHT22;10359;53.596;22.520;2022-11-03T15:36:01;6.70;1.00
20400;DHT22;10359;53.596;22.520;2022-11-03T15:38:52;6.70;1.00
20400;DHT22;10359;53.596;22.520;2022-11-03T15:41:43;6.60;1.00
20400;DHT22;10359;53.596;22.520;2022-11-03T15:44:36;6.50;1.00
20400;DHT22;10359;53.596;22.520;2022-11-03T15:47:26;6.50;1.00
20400;DHT22;10359;53.596;22.520;2022-11-03T15:50:15;6.50;1.00
20400;DHT22;10359;53.596;22.520;2022-11-03T15:53:06;6.40;1.00
20400;DHT22;10359;53.596;22.520;2022-11-03T15:55:56;6.30;1.00
20400;DHT22;10359;53.596;22.520;2022-11-03T15:58:45;6.30;1.00
20400;DHT22;10359;53.596;22.520;2022-11-03T16:01:35;6.30;1.00
20400;DHT22;10359;53.596;22.520;2022-11-03T16:04:24;6.20;1.00
20400;DHT22;10359;53.596;22.520;2022-11-03T16:07:14;6.20;1.00
20400;DHT22;10359;53.596;22.520;2022-11-03T16:10:05;6.20;1.00
20400;DHT22;10359;53.596;22.520;2022-11-03T16:12:54;6.20;1.00
20400;DHT22;10359;53.596;22.520;2022-11-03T16:15:44;6.10;1.00
20400;DHT22;10359;53.596;22.520;2022-11-03T16:18:33;6.10;1.00
20400;DHT22;10359;53.596;22.520;2022-11-03T16:21:24;6.00;1.00
20400;DHT22;10359;53.596;22.520;2022-11-03T16:24:13;6.00;1.00
20400;DHT22;10359;53.596;22.520;2022-11-03T16:27:04;6.00;1.00
20400;DHT22;10359;53.596;22.520;2022-11-03T16:29:54;5.90;1.00
20400;DHT22;10359;53.596;22.520;2022-11-03T16:32:43;5.90;1.00
20400;DHT22;10359;53.596;22.520;2022-11-03T16:35:33;5.80;1.00
20400;DHT22;10359;53.596;22.520;2022-11-03T16:38:22;5.80;1.00
20400;DHT22;10359;53.596;22.520;2022-11-03T16:41:11;5.70;1.00
20400;DHT22;10359;53.596;22.520;2022-11-03T16:44:02;5.70;1.00
20400;DHT22;10359;53.596;22.520;2022-11-03T16:50:04;5.60;1.00
20400;DHT22;10359;53.596;22.520;2022-11-03T16:52:53;5.50;1.00
20400;DHT22;10359;53.596;22.520;2022-11-03T16:55:43;5.40;1.00
20400;DHT22;10359;53.596;22.520;2022-11-03T16:58:33;5.40;1.00
20400;DHT22;10359;53.596;22.520;2022-11-03T17:01:25;5.40;1.00
20400;DHT22;10359;53.596;22.520;2022-11-03T17:04:14;5.30;1.00
20400;DHT22;10359;53.596;22.520;2022-11-03T17:07:03;5.20;1.00
20400;DHT22;10359;53.596;22.520;2022-11-03T17:09:53;5.10;1.00
20400;DHT22;10359;53.596;22.520;2022-11-03T17:12:42;5.10;1.00
20400;DHT22;10359;53.596;22.520;2022-11-03T17:15:32;5.00;1.00
20400;DHT22;10359;53.596;22.520;2022-11-03T17:18:22;5.00;1.00
20400;DHT22;10359;53.596;22.520;2022-11-03T17:21:12;4.90;1.00
20400;DHT22;10359;53.596;22.520;2022-11-03T17:24:01;4.90;1.00
20400;DHT22;10359;53.596;22.520;2022-11-03T17:26:56;4.90;1.00
20400;DHT22;10359;53.596;22.520;2022-11-03T17:29:49;4.80;1.00
20400;DHT22;10359;53.596;22.520;2022-11-03T17:32:41;4.80;1.00
20400;DHT22;10359;53.596;22.520;2022-11-03T17:35:34;4.70;1.00
20400;DHT22;10359;53.596;22.520;2022-11-03T17:38:27;4.70;1.00
20400;DHT22;10359;53.596;22.520;2022-11-03T17:41:17;4.60;1.00
20400;DHT22;10359;53.596;22.520;2022-11-03T17:44:09;4.60;1.00
20400;DHT22;10359;53.596;22.520;2022-11-03T17:46:59;4.60;1.00
20400;DHT22;10359;53.596;22.520;2022-11-03T17:49:49;4.60;1.00
20400;DHT22;10359;53.596;22.520;2022-11-03T17:52:41;4.50;1.00
20400;DHT22;10359;53.596;22.520;2022-11-03T17:55:34;4.50;1.00
20400;DHT22;10359;53.596;22.520;2022-11-03T17:58:27;4.50;1.00
20400;DHT22;10359;53.596;22.520;2022-11-03T18:01:20;4.40;1.00
20400;DHT22;10359;53.596;22.520;2022-11-03T18:04:11;4.40;1.00
20400;DHT22;10359;53.596;22.520;2022-11-03T18:07:13;4.30;1.00
20400;DHT22;10359;53.596;22.520;2022-11-03T18:10:07;4.30;1.00
20400;DHT22;10359;53.596;22.520;2022-11-03T18:13:01;4.20;1.00
20400;DHT22;10359;53.596;22.520;2022-11-03T18:16:09;4.30;1.00
20400;DHT22;10359;53.596;22.520;2022-11-03T18:18:59;4.20;1.00
20400;DHT22;10359;53.596;22.520;2022-11-03T18:21:49;4.20;1.00
20400;DHT22;10359;53.596;22.520;2022-11-03T18:24:39;4.10;1.00